Time;durP1;ratioP1;P1;durP2;ratioP2;P2;SDS_P1;SDS_P2;PMS_P1;PMS_P2;Temp;Humidity;BMP_temperature;BMP_pressure;BME280_temperature;BME280_humidity;BME280_pressure;Samples;Min_cycle;Max_cycle;Signal;HPM_P1;HPM_P2
2022/09/28 00:00:24;;;;;;;9.57;6.13;;;;;;;8.51;93.00;99537.41;4982511;28;20458;-88
2022/09/28 00:02:50;;;;;;;8.00;6.00;;;;;;;8.50;92.90;99528.63;4999328;28;20398;-88
2022/09/28 00:05:15;;;;;;;11.80;6.07;;;;;;;8.49;93.17;99532.16;5016084;28;20032;-88
2022/09/28 00:07:41;;;;;;;8.40;5.60;;;;;;;8.53;93.02;99535.66;4999271;28;20111;-88
2022/09/28 00:10:07;;;;;;;9.75;6.28;;;;;;;8.56;92.92;99535.63;4998678;28;20071;-87
2022/09/28 00:12:33;;;;;;;9.00;6.25;;;;;;;8.58;93.05;99544.44;5015464;28;20107;-87
2022/09/28 00:14:58;;;;;;;7.55;5.93;;;;;;;8.57;93.12;99537.41;4997854;28;20033;-87
2022/09/28 00:17:25;;;;;;;8.93;6.40;;;;;;;8.60;92.97;99534.75;5015605;28;20026;-87
2022/09/28 00:19:50;;;;;;;10.95;6.90;;;;;;;8.61;92.86;99535.63;4982409;28;20497;-87
2022/09/28 00:22:16;;;;;;;9.80;6.85;;;;;;;8.60;93.11;99524.22;5015096;28;20029;-88
2022/09/28 00:24:41;;;;;;;9.52;6.57;;;;;;;8.62;92.53;99527.75;4981752;28;20033;-87
2022/09/28 00:27:08;;;;;;;8.63;6.47;;;;;;;8.61;92.61;99525.09;4998010;28;20116;-87
2022/09/28 00:29:35;;;;;;;8.02;6.18;;;;;;;8.61;92.76;99526.00;4984735;28;20050;-87
2022/09/28 00:32:15;;;;;;;10.05;5.80;;;;;;;8.60;93.15;99520.72;4975110;28;20367;-87
2022/09/28 00:34:44;;;;;;;9.25;6.07;;;;;;;8.62;92.63;99519.84;4976586;28;20023;-87
2022/09/28 00:37:12;;;;;;;7.72;6.00;;;;;;;8.60;92.06;99512.81;4976209;28;20025;-87
2022/09/28 00:39:40;;;;;;;8.02;5.70;;;;;;;8.62;91.89;99511.94;4976214;28;20042;-87
2022/09/28 00:42:25;;;;;;;11.52;5.90;;;;;;;8.60;92.20;99512.81;4974776;28;20026;-88
2022/09/28 00:44:57;;;;;;;7.88;5.82;;;;;;;8.58;92.37;99510.19;4976121;28;20470;-87
2022/09/28 00:47:26;;;;;;;7.88;5.72;;;;;;;8.56;92.04;99506.69;4974886;28;20031;-87
2022/09/28 00:50:06;;;;;;;7.70;5.43;;;;;;;8.51;91.90;99497.94;4976216;28;20023;-87
2022/09/28 00:52:38;;;;;;;7.53;5.13;;;;;;;8.56;91.92;99509.31;4975330;28;20058;-87
2022/09/28 00:55:08;;;;;;;6.85;5.45;;;;;;;8.57;91.75;99504.94;4975668;28;20030;-88
2022/09/28 00:57:36;;;;;;;8.00;5.95;;;;;;;8.47;91.35;99504.94;4975868;28;20031;-88
2022/09/28 01:00:03;;;;;;;10.60;6.05;;;;;;;8.46;92.49;99511.09;4974889;28;20117;-88
2022/09/28 01:02:28;;;;;;;9.23;6.10;;;;;;;8.46;92.36;99502.34;4990841;28;20034;-87
2022/09/28 01:04:55;;;;;;;7.20;5.60;;;;;;;8.47;92.21;99504.06;4974813;28;20038;-87
2022/09/28 01:07:24;;;;;;;11.65;6.55;;;;;;;8.45;91.97;99496.19;4975913;28;20031;-88
2022/09/28 01:09:52;;;;;;;7.95;6.25;;;;;;;8.42;92.61;99487.41;4974922;28;20026;-88
2022/09/28 01:12:18;;;;;;;8.82;6.40;;;;;;;8.50;92.80;99493.53;4974609;28;20035;-88
2022/09/28 01:14:44;;;;;;;9.20;6.10;;;;;;;8.55;92.94;99498.78;4974967;28;20042;-88
2022/09/28 01:17:15;;;;;;;9.02;6.22;;;;;;;8.58;92.47;99496.16;4975482;28;20027;-88
2022/09/28 01:20:17;;;;;;;7.80;6.20;;;;;;;8.60;92.29;99497.91;4975531;28;20105;-88
2022/09/28 01:23:20;;;;;;;8.80;6.00;;;;;;;8.65;92.79;99500.50;4974759;28;20399;-88
2022/09/28 01:26:02;;;;;;;9.32;5.82;;;;;;;8.64;92.48;99497.00;4975716;28;20031;-88
2022/09/28 01:28:28;;;;;;;8.17;6.10;;;;;;;8.58;91.63;99485.63;4991548;28;20439;-87
2022/09/28 01:30:53;;;;;;;7.85;5.85;;;;;;;8.63;91.82;99497.03;4980891;28;20410;-88
2022/09/28 01:33:25;;;;;;;12.70;5.90;;;;;;;8.64;92.24;99507.53;5014593;28;20535;-87
2022/09/28 01:36:09;;;;;;;9.18;6.10;;;;;;;8.61;92.35;99502.31;5014080;28;20145;-87
2022/09/28 01:38:48;;;;;;;8.93;6.40;;;;;;;8.58;92.06;99499.66;5014359;28;20412;-88
2022/09/28 01:41:16;;;;;;;9.88;6.45;;;;;;;8.60;92.00;99507.56;4996934;28;20018;-88
2022/09/28 01:43:49;;;;;;;8.05;6.63;;;;;;;8.56;91.94;99501.41;5014300;28;20026;-88
2022/09/28 01:46:22;;;;;;;9.70;6.90;;;;;;;8.55;92.37;99509.34;5013509;28;20068;-87
2022/09/28 01:48:56;;;;;;;10.52;7.28;;;;;;;8.52;92.31;99516.38;5014412;28;20033;-87
2022/09/28 01:51:34;;;;;;;12.40;7.47;;;;;;;8.55;92.73;99515.47;4996470;28;20443;-87
2022/09/28 01:54:09;;;;;;;9.73;6.93;;;;;;;8.55;92.48;99517.22;5014798;28;20030;-87
2022/09/28 01:56:48;;;;;;;11.23;7.55;;;;;;;8.53;92.59;99506.72;5014149;28;20037;-87
2022/09/28 01:59:19;;;;;;;9.90;7.47;;;;;;;8.55;93.08;99498.78;4996984;28;20033;-87
2022/09/28 02:01:56;;;;;;;12.88;7.90;;;;;;;8.56;93.05;99504.03;4996677;28;20026;-87
2022/09/28 02:04:52;;;;;;;10.02;7.88;;;;;;;8.56;93.52;99498.78;5014606;28;20059;-87
2022/09/28 02:07:27;;;;;;;12.32;7.82;;;;;;;8.60;93.12;99505.78;4996210;28;20058;-87
2022/09/28 02:09:57;;;;;;;10.05;7.53;;;;;;;8.61;93.16;99504.94;5014267;28;20069;-87
2022/09/28 02:12:50;;;;;;;12.57;8.82;;;;;;;8.60;93.46;99503.16;5013977;28;20041;-87
2022/09/28 02:15:21;;;;;;;12.35;8.43;;;;;;;8.62;93.74;99504.06;5014224;28;20030;-87
2022/09/28 02:17:48;;;;;;;15.43;9.73;;;;;;;8.60;94.00;99503.16;4996449;28;20446;-87
2022/09/28 02:20:14;;;;;;;13.45;9.63;;;;;;;8.61;93.63;99504.03;5013763;28;20374;-87
2022/09/28 02:22:48;;;;;;;12.38;8.95;;;;;;;8.64;93.62;99509.28;5012548;28;20030;-87
2022/09/28 02:25:24;;;;;;;13.88;8.57;;;;;;;8.66;93.98;99505.78;4996522;28;20045;-87
2022/09/28 02:28:02;;;;;;;13.52;8.30;;;;;;;8.66;93.51;99491.75;5013835;28;20056;-87
2022/09/28 02:30:34;;;;;;;12.25;8.07;;;;;;;8.70;92.75;99501.41;4996259;28;20537;-87
2022/09/28 02:33:34;;;;;;;10.65;7.93;;;;;;;8.67;93.06;99504.91;4996267;28;20026;-87
2022/09/28 02:36:02;;;;;;;13.40;7.43;;;;;;;8.61;91.94;99491.78;4993842;28;20049;-88
2022/09/28 02:38:30;;;;;;;10.20;7.13;;;;;;;8.61;92.31;99504.03;5013659;28;20053;-87
2022/09/28 02:41:22;;;;;;;12.70;7.38;;;;;;;8.60;92.69;99505.78;5013224;28;20030;-87
2022/09/28 02:44:17;;;;;;;12.38;6.80;;;;;;;8.59;92.46;99506.69;5016810;28;20110;-87
2022/09/28 02:46:59;;;;;;;8.32;6.57;;;;;;;8.57;92.36;99502.31;5000810;28;20341;-87
2022/09/28 02:49:44;;;;;;;12.10;6.75;;;;;;;8.56;92.25;99504.03;5018020;28;20087;-87
2022/09/28 02:52:31;;;;;;;9.80;6.15;;;;;;;8.57;92.60;99510.22;5017175;28;20072;-87
2022/09/28 02:55:14;;;;;;;11.30;6.20;;;;;;;8.57;92.46;99508.47;5017115;28;20076;-87
2022/09/28 02:58:02;;;;;;;9.82;6.50;;;;;;;8.55;92.28;99518.09;4999526;28;20100;-88
2022/09/28 03:00:32;;;;;;;10.88;6.28;;;;;;;8.51;91.77;99511.09;5017456;28;20018;-88
2022/09/28 03:03:11;;;;;;;9.07;5.93;;;;;;;8.50;91.80;99509.34;5016949;28;20176;-87
2022/09/28 03:05:49;;;;;;;9.55;5.95;;;;;;;8.53;91.99;99509.34;5016690;28;20026;-88
2022/09/28 03:08:24;;;;;;;9.68;5.70;;;;;;;8.53;91.60;99510.22;5017190;28;20057;-88
2022/09/28 03:11:01;;;;;;;8.18;5.82;;;;;;;8.50;90.98;99507.59;5017524;28;20029;-87
2022/09/28 03:13:27;;;;;;;7.07;4.95;;;;;;;8.49;91.27;99512.88;5017157;28;20026;-88
2022/09/28 03:16:10;;;;;;;7.57;5.05;;;;;;;8.47;91.63;99507.59;4983089;28;20026;-88
2022/09/28 03:18:35;;;;;;;7.05;5.00;;;;;;;8.50;91.57;99511.97;4999477;28;20026;-88
2022/09/28 03:21:03;;;;;;;6.00;4.60;;;;;;;8.45;91.73;99501.47;5016880;28;20084;-88
2022/09/28 03:23:28;;;;;;;7.55;4.60;;;;;;;8.52;91.71;99511.09;5016337;28;20026;-88
2022/09/28 03:25:54;;;;;;;7.18;4.55;;;;;;;8.51;91.46;99511.97;5016732;28;20083;-88
2022/09/28 03:28:20;;;;;;;8.93;4.50;;;;;;;8.53;91.85;99509.34;5016281;28;20486;-87
2022/09/28 03:30:46;;;;;;;8.13;4.43;;;;;;;8.50;91.96;99511.97;5016688;28;20315;-87
2022/09/28 03:33:11;;;;;;;8.07;4.75;;;;;;;8.51;91.62;99514.59;4998826;28;20032;-87
2022/09/28 03:35:37;;;;;;;8.10;4.10;;;;;;;8.53;91.44;99504.06;5016767;28;20022;-87
2022/09/28 03:38:02;;;;;;;6.60;4.47;;;;;;;8.51;91.50;99508.47;5016611;28;20466;-87
2022/09/28 03:40:28;;;;;;;7.55;4.32;;;;;;;8.52;91.02;99508.47;4966964;28;20113;-87
2022/09/28 03:42:53;;;;;;;6.07;3.72;;;;;;;8.51;91.09;99501.44;5015845;28;20061;-88
2022/09/28 03:45:18;;;;;;;6.15;3.88;;;;;;;8.41;91.48;99488.31;4999386;28;20362;-88
2022/09/28 03:47:45;;;;;;;9.18;3.90;;;;;;;8.48;91.74;99511.13;4998976;28;20113;-88
2022/09/28 03:50:11;;;;;;;5.03;3.67;;;;;;;8.46;90.97;99504.97;5016102;28;20521;-87
2022/09/28 03:52:36;;;;;;;7.05;4.15;;;;;;;8.41;91.43;99510.25;4982682;28;20117;-87
2022/09/28 03:55:02;;;;;;;8.75;4.10;;;;;;;8.43;91.35;99519.00;4982388;28;20117;-87
2022/09/28 03:57:27;;;;;;;4.57;3.72;;;;;;;8.39;91.30;99517.25;5015877;28;20189;-87
2022/09/28 03:59:52;;;;;;;5.22;3.58;;;;;;;8.40;91.32;99520.78;4998311;28;20417;-87
2022/09/28 04:02:18;;;;;;;6.38;3.50;;;;;;;8.40;92.19;99519.03;5016356;28;20409;-87
2022/09/28 04:04:43;;;;;;;5.15;3.22;;;;;;;8.36;91.71;99514.59;5016239;28;20036;-87
2022/09/28 04:07:09;;;;;;;6.05;3.58;;;;;;;8.38;91.83;99512.88;4982658;28;20049;-87
2022/09/28 04:09:34;;;;;;;5.18;3.42;;;;;;;8.37;92.42;99513.75;4998197;28;20529;-87
2022/09/28 04:11:59;;;;;;;7.10;3.40;;;;;;;8.41;91.88;99518.13;5015857;28;20037;-88
2022/09/28 04:14:25;;;;;;;5.53;3.20;;;;;;;8.44;92.45;99518.13;5015764;28;20366;-88
2022/09/28 04:16:53;;;;;;;5.13;3.05;;;;;;;8.48;92.27;99513.75;4998307;28;20445;-88
2022/09/28 04:19:19;;;;;;;10.35;3.20;;;;;;;8.47;91.75;99522.50;4998615;28;20038;-88
2022/09/28 04:21:44;;;;;;;3.65;2.92;;;;;;;8.43;91.33;99515.50;5015576;28;20516;-88
2022/09/28 04:24:10;;;;;;;3.60;2.80;;;;;;;8.46;92.41;99516.38;4998093;28;20553;-88
2022/09/28 04:26:35;;;;;;;5.85;3.10;;;;;;;8.46;92.17;99521.63;5015525;28;20502;-87
2022/09/28 04:29:16;;;;;;;5.55;3.00;;;;;;;8.33;91.60;99505.84;5015817;28;20458;-88
2022/09/28 04:31:48;;;;;;;5.75;2.88;;;;;;;8.34;92.20;99507.59;5015509;28;20041;-87
2022/09/28 04:34:16;;;;;;;4.97;2.78;;;;;;;8.36;92.29;99503.22;5015857;28;20030;-87
2022/09/28 04:36:45;;;;;;;5.72;2.60;;;;;;;8.34;91.77;99504.94;5015634;28;20036;-87
2022/09/28 04:39:15;;;;;;;4.00;2.40;;;;;;;8.33;92.72;99504.06;4997470;28;20470;-88
2022/09/28 04:41:41;;;;;;;7.35;2.60;;;;;;;8.33;92.41;99498.81;5015065;28;20529;-87
2022/09/28 04:44:07;;;;;;;3.75;2.40;;;;;;;8.29;92.46;99497.06;5014780;28;20113;-88
2022/09/28 04:46:33;;;;;;;5.68;2.40;;;;;;;8.39;92.50;99506.72;5015121;28;20034;-88
2022/09/28 04:48:58;;;;;;;3.15;2.50;;;;;;;8.35;91.90;99506.69;5014939;28;20095;-88
2022/09/28 04:51:24;;;;;;;4.10;2.20;;;;;;;8.37;91.98;99515.50;4997113;28;20034;-88
2022/09/28 04:53:49;;;;;;;4.13;2.40;;;;;;;8.35;91.79;99512.88;4997590;28;20032;-88
2022/09/28 04:56:16;;;;;;;4.10;2.20;;;;;;;8.34;91.96;99515.47;4997979;28;20040;-87
2022/09/28 04:58:43;;;;;;;5.13;2.40;;;;;;;8.27;91.75;99517.25;5014748;28;20030;-87
2022/09/28 05:01:13;;;;;;;4.32;2.13;;;;;;;8.26;92.04;99518.13;5014782;28;20026;-86
2022/09/28 05:03:39;;;;;;;7.30;2.58;;;;;;;8.23;91.48;99529.53;5015111;28;20045;-86
2022/09/28 05:06:07;;;;;;;6.50;2.53;;;;;;;8.17;91.59;99526.91;4997010;28;20398;-86
2022/09/28 05:08:34;;;;;;;5.78;2.35;;;;;;;8.16;91.76;99534.81;4997805;28;20442;-87
2022/09/28 05:11:05;;;;;;;4.90;2.53;;;;;;;8.13;91.81;99529.53;4997380;28;20029;-87
2022/09/28 05:13:32;;;;;;;4.55;2.28;;;;;;;8.12;91.93;99533.03;5014963;28;20446;-86
2022/09/28 05:15:58;;;;;;;4.25;2.28;;;;;;;8.10;91.60;99532.19;4997318;28;20030;-87
2022/09/28 05:18:24;;;;;;;5.63;2.40;;;;;;;8.09;92.28;99527.78;5014550;28;20051;-87
2022/09/28 05:20:50;;;;;;;7.38;2.17;;;;;;;8.09;92.03;99527.78;5014132;28;20359;-87
2022/09/28 05:23:16;;;;;;;5.30;2.10;;;;;;;8.07;92.17;99532.19;4996740;28;20036;-87
2022/09/28 05:25:41;;;;;;;6.72;2.58;;;;;;;8.02;92.50;99527.78;5014901;28;20125;-87
2022/09/28 05:28:07;;;;;;;5.57;1.98;;;;;;;8.02;92.10;99532.19;5014647;28;20096;-87
2022/09/28 05:30:34;;;;;;;12.43;2.13;;;;;;;8.02;93.02;99538.31;5014221;28;20046;-87
2022/09/28 05:33:00;;;;;;;2.58;1.98;;;;;;;8.02;92.92;99534.81;4996797;28;20040;-87
2022/09/28 05:35:25;;;;;;;3.80;2.00;;;;;;;8.07;93.34;99534.81;4980950;28;20030;-87
2022/09/28 05:37:51;;;;;;;5.40;1.90;;;;;;;8.08;92.57;99532.16;5013969;28;20052;-87
2022/09/28 05:40:16;;;;;;;6.80;1.80;;;;;;;8.10;92.77;99532.19;4996507;28;20026;-87
2022/09/28 05:42:42;;;;;;;5.00;1.85;;;;;;;8.08;92.08;99529.53;5014707;28;20037;-87
2022/09/28 05:45:09;;;;;;;4.28;1.98;;;;;;;8.09;91.75;99531.28;4996549;28;20026;-87
2022/09/28 05:47:39;;;;;;;2.42;1.67;;;;;;;8.08;92.32;99532.16;5014132;28;20029;-86
2022/09/28 05:50:06;;;;;;;3.50;1.90;;;;;;;8.04;92.27;99530.41;4996466;28;20076;-87
2022/09/28 05:52:31;;;;;;;3.40;1.85;;;;;;;7.99;92.38;99519.91;5014629;28;20034;-87
2022/09/28 05:54:57;;;;;;;4.35;2.15;;;;;;;8.00;91.61;99540.06;5014328;28;20033;-87
2022/09/28 05:57:22;;;;;;;4.53;2.05;;;;;;;8.00;92.61;99541.81;5014148;28;20374;-87
2022/09/28 05:59:48;;;;;;;4.32;2.10;;;;;;;8.08;92.40;99534.78;5014374;28;20370;-86
2022/09/28 06:02:13;;;;;;;5.15;2.17;;;;;;;8.15;92.15;99540.94;4996970;28;20053;-87
2022/09/28 06:04:38;;;;;;;6.43;2.10;;;;;;;8.29;92.42;99544.44;4996248;28;20022;-87
2022/09/28 06:07:04;;;;;;;5.50;2.25;;;;;;;8.33;91.65;99551.44;4980559;28;20378;-87
2022/09/28 06:09:29;;;;;;;3.47;2.10;;;;;;;8.36;91.92;99553.22;5014685;28;20022;-87
2022/09/28 06:11:58;;;;;;;5.32;2.25;;;;;;;8.35;91.41;99548.81;4997715;28;20044;-87
2022/09/28 06:14:23;;;;;;;5.68;2.40;;;;;;;8.34;91.57;99547.06;5014878;28;20049;-87
2022/09/28 06:16:49;;;;;;;4.15;2.40;;;;;;;8.25;91.43;99548.81;4998134;28;20072;-86
2022/09/28 06:19:14;;;;;;;5.43;2.55;;;;;;;8.28;91.85;99553.22;5018157;28;20061;-88
2022/09/28 06:21:39;;;;;;;4.80;2.55;;;;;;;8.28;91.49;99559.34;5018050;28;20029;-88
2022/09/28 06:24:05;;;;;;;7.05;2.90;;;;;;;8.26;91.19;99566.38;5002571;28;20036;-88
2022/09/28 06:26:30;;;;;;;5.82;2.70;;;;;;;8.24;91.40;99554.97;5001502;28;20481;-86
2022/09/28 06:28:55;;;;;;;5.82;2.78;;;;;;;8.24;91.97;99559.34;5018198;28;20084;-86
2022/09/28 06:31:23;;;;;;;4.07;2.70;;;;;;;8.45;92.36;99562.00;4984971;28;20061;-87
2022/09/28 06:33:49;;;;;;;5.53;2.90;;;;;;;8.68;91.65;99566.34;5001489;28;20052;-87
2022/09/28 06:36:16;;;;;;;6.38;3.25;;;;;;;8.80;91.25;99563.69;5001590;28;20068;-88
2022/09/28 06:38:42;;;;;;;5.00;2.95;;;;;;;9.00;90.35;99574.16;4999944;28;20026;-87
2022/09/28 06:41:08;;;;;;;4.90;2.80;;;;;;;9.14;89.80;99567.09;4983711;28;20076;-86
2022/09/28 06:43:34;;;;;;;4.60;3.28;;;;;;;9.23;88.89;99568.81;5000258;28;20034;-86
2022/09/28 06:46:00;;;;;;;5.90;3.28;;;;;;;9.39;88.44;99575.75;4983853;28;20034;-87
2022/09/28 06:48:26;;;;;;;7.35;3.58;;;;;;;9.51;87.55;99580.97;5017637;28;20097;-86
2022/09/28 06:50:51;;;;;;;8.73;3.53;;;;;;;9.69;87.69;99579.13;5000244;28;20108;-86
2022/09/28 06:53:16;;;;;;;6.03;3.50;;;;;;;9.86;87.60;99576.38;4984161;28;20141;-86
2022/09/28 06:55:47;;;;;;;6.80;3.33;;;;;;;9.97;86.31;99579.78;4999784;28;20026;-86
2022/09/28 06:58:16;;;;;;;5.32;3.83;;;;;;;10.08;86.03;99569.16;5017455;28;20025;-87
2022/09/28 07:00:42;;;;;;;5.45;3.47;;;;;;;10.18;84.34;99586.69;4999423;28;20057;-87
2022/09/28 07:03:19;;;;;;;6.05;3.75;;;;;;;10.31;85.85;99582.19;4999952;28;20033;-88
2022/09/28 07:05:48;;;;;;;8.00;4.03;;;;;;;10.38;84.03;99592.72;5017391;28;20033;-90
2022/09/28 07:08:14;;;;;;;5.82;4.10;;;;;;;10.48;83.99;99593.50;4999472;28;20025;-93
2022/09/28 07:10:45;;;;;;;6.22;4.40;;;;;;;10.53;83.96;99594.31;5017552;28;20117;-90
2022/09/28 07:13:13;;;;;;;7.43;4.05;;;;;;;10.55;82.86;99589.91;5017744;28;20042;-89
2022/09/28 07:15:42;;;;;;;6.78;4.20;;;;;;;10.69;83.61;99588.00;5000095;28;20123;-91
2022/09/28 07:18:09;;;;;;;6.72;4.38;;;;;;;10.78;82.94;99593.19;5017517;28;20025;-90
2022/09/28 07:20:36;;;;;;;7.15;4.55;;;;;;;10.90;82.44;99589.56;5017099;28;20159;-92
2022/09/28 07:23:04;;;;;;;6.70;4.38;;;;;;;10.97;81.62;99595.66;4982828;28;20107;-89
2022/09/28 07:25:31;;;;;;;7.35;4.35;;;;;;;11.13;82.08;99594.56;5015871;28;20117;-89
2022/09/28 07:28:00;;;;;;;7.50;4.40;;;;;;;11.30;82.29;99599.66;5016316;28;20142;-89
2022/09/28 07:30:27;;;;;;;6.50;4.22;;;;;;;11.52;81.90;99597.66;4999301;28;20109;-91
2022/09/28 07:32:53;;;;;;;8.60;4.40;;;;;;;11.61;80.23;99596.66;4999370;28;20084;-91
2022/09/28 07:35:18;;;;;;;8.68;4.30;;;;;;;11.70;80.31;99602.69;5017527;28;20033;-91
2022/09/28 07:37:44;;;;;;;8.45;4.50;;;;;;;11.81;80.29;99612.22;5017148;28;20034;-91
2022/09/28 07:42:53;;;;;;;7.07;4.03;;;;;;;12.15;78.74;99602.91;5017075;28;20036;-92
2022/09/28 07:45:25;;;;;;;12.65;4.25;;;;;;;12.25;77.83;99604.53;5016528;28;20018;-91
2022/09/28 07:47:54;;;;;;;4.65;3.63;;;;;;;12.43;77.61;99616.59;5017088;28;20030;-94
2022/09/28 07:50:20;;;;;;;6.22;3.80;;;;;;;12.54;76.53;99609.34;5016687;28;20034;-93
2022/09/28 07:52:46;;;;;;;6.68;4.00;;;;;;;12.60;76.50;99603.06;4983132;28;20044;-92
2022/09/28 07:55:12;;;;;;;9.60;3.85;;;;;;;12.75;75.78;99610.75;5017555;28;20029;-91
2022/09/28 07:57:38;;;;;;;7.05;3.75;;;;;;;12.99;75.53;99612.06;4999224;28;20030;-91
2022/09/28 08:00:07;;;;;;;7.38;3.92;;;;;;;13.22;74.07;99619.59;4984152;28;20061;-90
2022/09/28 08:02:34;;;;;;;6.78;3.92;;;;;;;13.23;73.39;99617.81;4984147;28;20354;-90
2022/09/28 08:04:59;;;;;;;9.15;3.85;;;;;;;13.39;73.51;99623.72;5016319;28;20033;-89
2022/09/28 08:07:25;;;;;;;4.93;3.60;;;;;;;13.59;74.02;99616.22;5016226;28;20076;-91
2022/09/28 08:09:50;;;;;;;9.20;3.97;;;;;;;13.72;73.23;99617.69;5017146;28;20034;-92
2022/09/28 08:12:18;;;;;;;7.07;3.40;;;;;;;13.82;72.76;99622.78;5016625;28;20112;-91
2022/09/28 08:14:44;;;;;;;7.55;3.72;;;;;;;14.09;71.94;99623.94;5016475;28;20108;-91
2022/09/28 08:17:10;;;;;;;9.38;3.95;;;;;;;14.42;71.96;99627.59;5016701;28;20116;-90
2022/09/28 08:22:19;;;;;;;5.60;3.50;;;;;;;14.94;70.00;99619.19;5017980;28;20458;-90
2022/09/28 08:24:46;;;;;;;7.40;3.72;;;;;;;15.14;69.35;99625.75;5000562;28;20038;-89
2022/09/28 08:27:13;;;;;;;8.57;3.70;;;;;;;15.20;67.92;99626.47;5018776;28;20046;-89
2022/09/28 08:29:38;;;;;;;6.53;3.75;;;;;;;15.32;68.34;99630.56;5016506;28;20046;-89
2022/09/28 08:32:07;;;;;;;6.60;3.50;;;;;;;15.46;67.65;99638.16;5003056;28;20101;-93
2022/09/28 08:34:41;;;;;;;6.72;3.30;;;;;;;15.69;67.14;99640.19;5024841;28;20061;-90
2022/09/28 08:37:08;;;;;;;5.13;3.10;;;;;;;15.75;65.71;99645.34;5021177;28;20037;-88
2022/09/28 08:39:34;;;;;;;6.93;3.20;;;;;;;15.83;65.63;99647.78;5018935;28;20030;-88
2022/09/28 08:42:14;;;;;;;6.60;3.30;;;;;;;15.83;65.93;99643.31;4999195;28;20109;-90
2022/09/28 08:44:47;;;;;;;7.70;3.22;;;;;;;15.94;66.29;99643.88;5016302;28;20033;-89
2022/09/28 08:50:04;;;;;;;5.10;2.95;;;;;;;15.92;64.52;99644.84;5016087;28;20087;-89
2022/09/28 08:52:36;;;;;;;6.75;2.90;;;;;;;15.93;63.46;99649.22;5015091;28;20032;-88
2022/09/28 08:55:15;;;;;;;7.68;3.30;;;;;;;16.20;65.19;99652.88;5015696;28;20033;-89
2022/09/28 08:57:55;;;;;;;6.65;3.08;;;;;;;16.44;64.77;99657.38;5015708;28;20045;-88
2022/09/28 09:00:34;;;;;;;7.68;3.42;;;;;;;16.50;64.02;99662.53;4997875;28;20366;-88
2022/09/28 09:03:09;;;;;;;6.72;3.22;;;;;;;16.57;63.24;99654.31;5014699;28;20026;-88
2022/09/28 09:05:59;;;;;;;6.28;3.40;;;;;;;16.59;65.86;99657.84;5015825;28;20037;-88
2022/09/28 09:08:44;;;;;;;4.63;2.85;;;;;;;16.68;64.10;99655.72;5015268;28;20017;-89
2022/09/28 09:11:38;;;;;;;8.50;3.30;;;;;;;16.80;65.03;99658.94;5015275;28;20025;-89
2022/09/28 09:14:06;;;;;;;7.78;3.00;;;;;;;16.99;61.60;99663.59;5008631;28;20034;-87
2022/09/28 09:16:54;;;;;;;10.23;3.05;;;;;;;17.34;62.53;99674.81;5015039;28;20057;-87
2022/09/28 09:20:13;;;;;;;4.43;2.78;;;;;;;17.53;63.41;99673.25;5015361;28;20025;-88
2022/09/28 09:22:46;;;;;;;5.80;2.88;;;;;;;17.74;59.70;99671.63;4953916;28;20475;-88
2022/09/28 09:25:24;;;;;;;5.18;2.90;;;;;;;17.94;59.96;99675.31;5012677;28;20045;-87
2022/09/28 09:27:52;;;;;;;7.22;3.00;;;;;;;17.88;57.41;99673.75;5015169;28;20025;-89
2022/09/28 09:30:23;;;;;;;8.60;2.95;;;;;;;17.95;57.93;99675.28;5014438;28;20042;-88
2022/09/28 09:33:03;;;;;;;6.05;3.10;;;;;;;17.74;57.97;99679.63;5014908;28;20030;-91
2022/09/28 09:35:50;;;;;;;5.90;3.00;;;;;;;17.31;60.28;99684.78;4996599;28;20029;-91
2022/09/28 09:38:27;;;;;;;7.47;2.90;;;;;;;16.81;61.51;99682.91;5015017;28;20033;-96
2022/09/28 09:41:02;;;;;;;5.63;2.80;;;;;;;16.44;60.90;99689.38;5016293;28;20033;-96
2022/09/28 09:43:40;;;;;;;5.53;2.63;;;;;;;16.37;62.08;99690.53;5014713;28;20477;-95
2022/09/28 09:46:18;;;;;;;5.05;2.65;;;;;;;16.35;61.67;99692.34;5014876;28;20045;-96
2022/09/28 09:49:02;;;;;;;5.68;2.70;;;;;;;16.12;63.22;99686.88;5015230;28;20030;-94
2022/09/28 09:51:55;;;;;;;7.15;2.67;;;;;;;16.18;63.69;99692.88;5015703;28;20030;-96
2022/09/28 09:54:23;;;;;;;;;;;;;;;16.20;63.74;99692.84;5016411;28;20025;-94
2022/09/28 09:56:53;;;;;;;8.23;2.58;;;;;;;16.02;63.46;99686.28;5013893;28;19951;-93
2022/09/28 09:59:23;;;;;;;6.65;2.50;;;;;;;16.04;63.11;99692.44;5014905;28;20035;-93
2022/09/28 10:01:50;;;;;;;5.22;2.72;;;;;;;15.94;62.96;99682.97;5014316;28;20025;-94
2022/09/28 10:04:31;;;;;;;5.07;2.63;;;;;;;16.16;63.60;99688.53;5013840;28;20036;-95
2022/09/28 10:07:04;;;;;;;6.55;2.80;;;;;;;16.19;63.25;99680.44;5013926;28;20026;-92
2022/09/28 10:09:44;;;;;;;4.20;2.58;;;;;;;16.36;62.95;99698.53;5014474;28;20037;-90
2022/09/28 10:12:14;;;;;;;4.63;2.40;;;;;;;16.55;60.26;99689.06;5014105;28;20478;-92
2022/09/28 10:14:40;;;;;;;4.80;2.40;;;;;;;16.84;60.41;99687.28;4997171;28;20069;-87
2022/09/28 10:17:06;;;;;;;4.63;2.30;;;;;;;17.06;59.41;99684.75;4996211;28;20061;-91
2022/09/28 10:19:34;;;;;;;4.95;2.33;;;;;;;17.44;59.80;99686.06;5013803;28;20115;-90
2022/09/28 10:22:04;;;;;;;6.90;2.60;;;;;;;17.47;58.36;99681.50;5013633;28;20022;-92
2022/09/28 10:24:44;;;;;;;4.75;2.50;;;;;;;17.31;59.58;99682.97;4996835;28;20030;-90
2022/09/28 10:27:16;;;;;;;4.45;2.22;;;;;;;17.22;59.99;99680.63;4996789;28;20315;-91
2022/09/28 10:30:16;;;;;;;5.15;2.30;;;;;;;17.16;59.27;99691.50;5014478;28;20052;-92
2022/09/28 10:32:47;;;;;;;4.32;2.20;;;;;;;17.07;58.92;99679.34;4996303;28;20026;-92
2022/09/28 10:35:27;;;;;;;5.55;2.45;;;;;;;17.25;58.78;99678.69;5013868;28;20026;-94
2022/09/28 10:38:03;;;;;;;3.80;2.08;;;;;;;17.51;57.04;99677.78;5014254;28;20080;-91
2022/09/28 10:40:54;;;;;;;4.93;2.40;;;;;;;17.62;57.98;99684.53;5014056;28;20022;-92
2022/09/28 10:43:25;;;;;;;5.68;2.58;;;;;;;17.27;57.76;99674.19;4996168;28;20169;-90
2022/09/28 10:46:12;;;;;;;8.05;2.60;;;;;;;17.16;60.29;99680.81;5014319;28;20030;-87
2022/09/28 10:48:46;;;;;;;5.72;2.70;;;;;;;17.05;59.13;99677.66;5013892;28;20029;-87
2022/09/28 10:51:11;;;;;;;5.70;2.70;;;;;;;16.90;59.84;99677.25;5013608;28;20109;-90
2022/09/28 10:53:37;;;;;;;7.93;2.47;;;;;;;16.86;60.14;99680.94;5014138;28;20109;-87
2022/09/28 10:56:18;;;;;;;3.83;2.00;;;;;;;16.95;61.21;99677.09;4996321;28;20468;-88
2022/09/28 10:58:43;;;;;;;4.43;2.40;;;;;;;17.19;60.36;99670.91;5013834;28;20026;-90
2022/09/28 11:01:13;;;;;;;5.80;2.22;;;;;;;17.27;59.62;99678.66;5013181;28;20040;-89
2022/09/28 11:03:58;;;;;;;4.63;2.38;;;;;;;17.24;59.74;99678.75;5014237;28;20026;-91
2022/09/28 11:06:34;;;;;;;5.78;2.70;;;;;;;17.65;59.60;99682.63;5017284;28;20079;-89
2022/09/28 11:09:13;;;;;;;4.85;2.85;;;;;;;17.85;57.28;99683.69;4999349;28;20030;-89
2022/09/28 11:11:42;;;;;;;5.85;2.80;;;;;;;18.01;58.09;99664.34;5016955;28;20366;-89
2022/09/28 11:14:34;;;;;;;5.38;2.83;;;;;;;17.98;57.95;99680.50;5016862;28;20473;-89
2022/09/28 11:17:17;;;;;;;3.72;2.40;;;;;;;18.21;57.83;99673.41;5017093;28;20481;-88
2022/09/28 11:19:43;;;;;;;6.65;2.80;;;;;;;18.26;56.32;99674.09;4999148;28;20056;-88
2022/09/28 11:22:25;;;;;;;4.57;2.70;;;;;;;18.31;57.21;99673.91;5016637;28;20057;-88
2022/09/28 11:24:51;;;;;;;4.57;2.08;;;;;;;17.94;56.35;99672.66;5016874;28;20026;-88
2022/09/28 11:27:25;;;;;;;6.88;2.30;;;;;;;17.78;57.34;99675.06;5016575;28;20061;-89
2022/09/28 11:29:59;;;;;;;4.63;2.42;;;;;;;17.55;57.67;99664.31;4988142;28;20050;-88
2022/09/28 11:32:37;;;;;;;5.97;2.10;;;;;;;17.69;57.37;99672.69;4977524;28;20039;-88
2022/09/28 11:35:03;;;;;;;3.92;2.53;;;;;;;18.14;57.26;99663.88;4977859;28;20019;-88
2022/09/28 11:37:48;;;;;;;4.93;1.92;;;;;;;18.16;54.74;99672.72;4977823;28;20452;-89
2022/09/28 11:40:22;;;;;;;4.68;2.08;;;;;;;17.93;55.65;99676.25;4992654;28;20037;-88
2022/09/28 11:43:11;;;;;;;5.50;1.85;;;;;;;17.58;56.64;99675.75;4977256;28;20455;-89
2022/09/28 11:45:50;;;;;;;4.47;2.10;;;;;;;17.19;57.29;99681.59;4977291;28;20023;-89
2022/09/28 11:48:48;;;;;;;6.53;1.98;;;;;;;16.86;58.55;99675.59;4977797;28;20033;-89
2022/09/28 11:51:23;;;;;;;4.20;1.73;;;;;;;16.55;58.09;99669.53;4976999;28;20112;-89
2022/09/28 11:54:03;;;;;;;3.65;1.70;;;;;;;16.40;59.93;99681.53;4977100;28;20027;-88
2022/09/28 11:56:42;;;;;;;3.95;1.92;;;;;;;16.20;59.90;99675.06;4977387;28;20030;-88
2022/09/28 11:59:18;;;;;;;3.50;1.65;;;;;;;15.99;59.80;99668.59;4977037;28;20030;-88
2022/09/28 12:01:52;;;;;;;5.50;2.00;;;;;;;15.94;60.05;99669.66;4977208;28;20026;-89
2022/09/28 12:04:30;;;;;;;2.17;1.80;;;;;;;16.18;60.59;99665.34;4976988;28;20022;-88